createdAt,value
2018-03-21T00:00:35.254Z,3.08
2018-03-21T00:01:35.294Z,3.00
2018-03-21T00:02:35.358Z,3.08
2018-03-21T00:03:35.422Z,3.00
2018-03-21T00:04:35.490Z,3.07
2018-03-21T00:05:35.542Z,3.04
2018-03-21T00:06:35.594Z,3.00
2018-03-21T00:07:35.658Z,3.00
2018-03-21T00:08:35.714Z,2.95
2018-03-21T00:09:35.778Z,2.79
2018-03-21T00:10:35.838Z,2.82
2018-03-21T00:11:35.890Z,2.79
2018-03-21T00:12:35.994Z,2.83
2018-03-21T00:13:36.015Z,2.67
2018-03-21T00:14:36.074Z,2.77
2018-03-21T00:15:36.135Z,2.75
2018-03-21T00:16:36.190Z,2.65
2018-03-21T00:17:36.247Z,2.65
2018-03-21T00:18:36.310Z,2.60
2018-03-21T00:19:36.371Z,2.60
2018-03-21T00:20:36.434Z,2.64
2018-03-21T00:21:36.486Z,2.51
2018-03-21T00:22:36.551Z,2.62
2018-03-21T00:23:36.603Z,2.60
2018-03-21T00:24:36.672Z,2.56
2018-03-21T00:25:36.731Z,2.50
2018-03-21T00:26:36.783Z,2.56
2018-03-21T00:27:36.839Z,2.65
2018-03-21T00:28:36.899Z,2.64
2018-03-21T00:29:36.967Z,2.53
2018-03-21T00:30:37.027Z,2.65
2018-03-21T00:31:37.089Z,2.57
2018-03-21T00:32:37.149Z,2.67
2018-03-21T00:33:37.195Z,2.67
2018-03-21T00:34:37.567Z,2.68
2018-03-21T00:35:37.316Z,2.64
2018-03-21T00:36:37.375Z,2.64
2018-03-21T00:37:37.435Z,2.61
2018-03-21T00:38:37.504Z,2.60
2018-03-21T00:39:37.560Z,2.68
2018-03-21T00:40:37.764Z,2.72
2018-03-21T00:41:37.672Z,2.69
2018-03-21T00:42:37.731Z,2.75
2018-03-21T00:43:37.791Z,2.74
2018-03-21T00:44:37.848Z,2.83
2018-03-21T00:45:37.919Z,2.89
2018-03-21T00:46:37.976Z,2.83
2018-03-21T00:47:38.028Z,2.85
2018-03-21T00:48:38.087Z,2.95
2018-03-21T00:49:38.144Z,2.98
2018-03-21T00:50:38.417Z,3.01
2018-03-21T00:51:38.269Z,3.07
2018-03-21T00:52:38.323Z,3.00
2018-03-21T00:53:38.384Z,3.03
2018-03-21T00:54:38.446Z,3.10
2018-03-21T00:55:38.508Z,3.18
2018-03-21T00:56:38.564Z,3.11
2018-03-21T00:57:38.620Z,3.22
2018-03-21T00:58:38.689Z,3.25
2018-03-21T00:59:38.736Z,3.26
2018-03-21T01:00:38.804Z,3.25
2018-03-21T01:01:38.863Z,3.29
2018-03-21T01:02:38.916Z,3.28
2018-03-21T01:03:38.973Z,3.26
2018-03-21T01:04:39.032Z,3.31
2018-03-21T01:05:39.122Z,3.29
2018-03-21T01:06:39.156Z,3.36
2018-03-21T01:07:39.212Z,3.36
2018-03-21T01:08:39.268Z,3.26
2018-03-21T01:09:39.329Z,3.40
2018-03-21T01:10:39.397Z,3.40
2018-03-21T01:11:39.476Z,3.37
2018-03-21T01:12:39.556Z,3.40
2018-03-21T01:13:39.589Z,3.26
2018-03-21T01:14:39.633Z,3.40
2018-03-21T01:15:39.761Z,3.31
2018-03-21T01:16:39.809Z,3.28
2018-03-21T01:17:39.825Z,3.34
2018-03-21T01:18:39.909Z,3.22
2018-03-21T01:19:40.005Z,3.18
2018-03-21T01:20:40.049Z,3.14
2018-03-21T01:21:40.073Z,3.16
2018-03-21T01:22:40.209Z,3.03
2018-03-21T01:23:40.221Z,3.03
2018-03-21T01:24:40.257Z,3.10
2018-03-21T01:25:40.305Z,2.98
2018-03-21T01:26:40.497Z,2.97
2018-03-21T01:27:40.446Z,2.97
2018-03-21T01:28:40.513Z,2.83
2018-03-21T01:29:40.561Z,2.85
2018-03-21T01:30:40.621Z,2.86
2018-03-21T01:31:40.721Z,2.65
2018-03-21T01:32:40.776Z,2.75
2018-03-21T01:33:40.885Z,2.71
2018-03-21T01:34:40.871Z,2.69
2018-03-21T01:35:40.913Z,2.65
2018-03-21T01:36:41.022Z,2.71
2018-03-21T01:37:41.026Z,2.79
2018-03-21T01:38:41.121Z,2.74
2018-03-21T01:39:41.141Z,2.77
2018-03-21T01:40:41.234Z,2.77
2018-03-21T01:41:41.278Z,2.71
2018-03-21T01:42:41.366Z,2.69
2018-03-21T01:43:41.422Z,2.67
2018-03-21T01:44:41.454Z,2.56
2018-03-21T01:45:41.502Z,2.61
2018-03-21T01:46:41.568Z,2.56
2018-03-21T01:47:41.642Z,2.54
2018-03-21T01:48:41.706Z,2.47
2018-03-21T01:49:41.738Z,2.43
2018-03-21T01:50:41.770Z,2.38
2018-03-21T01:51:41.870Z,2.35
2018-03-21T01:52:41.930Z,2.32
2018-03-21T01:53:41.961Z,2.20
2018-03-21T01:54:42.030Z,2.06
2018-03-21T01:55:42.139Z,2.18
2018-03-21T01:56:42.133Z,2.04
2018-03-21T01:57:42.221Z,2.11
2018-03-21T01:58:42.503Z,1.94
2018-03-21T01:59:42.354Z,2.10
2018-03-21T02:00:42.380Z,1.99
2018-03-21T02:01:42.482Z,1.89
2018-03-21T02:02:42.510Z,1.92
2018-03-21T02:03:42.627Z,1.94
2018-03-21T02:04:42.643Z,1.87
2018-03-21T02:05:42.707Z,1.81
2018-03-21T02:06:42.733Z,1.81
2018-03-21T02:07:42.802Z,1.77
2018-03-21T02:08:42.862Z,1.92
2018-03-21T02:09:42.968Z,1.89
2018-03-21T02:10:42.987Z,1.88
2018-03-21T02:11:43.056Z,1.97
2018-03-21T02:12:43.160Z,2.00
2018-03-21T02:13:43.196Z,2.02
2018-03-21T02:14:43.215Z,1.89
2018-03-21T02:15:43.247Z,1.92
2018-03-21T02:16:43.314Z,1.88
2018-03-21T02:17:43.391Z,1.91
2018-03-21T02:18:43.479Z,1.89
2018-03-21T02:19:43.530Z,1.87
2018-03-21T02:20:43.552Z,1.76
2018-03-21T02:21:43.636Z,1.77
2018-03-21T02:22:43.691Z,1.74
2018-03-21T02:23:43.776Z,1.71
2018-03-21T02:24:43.907Z,1.76
2018-03-21T02:25:43.864Z,1.71
2018-03-21T02:26:43.975Z,1.74
2018-03-21T02:27:44.003Z,1.62
2018-03-21T02:28:44.067Z,1.59
2018-03-21T02:29:44.128Z,1.59
2018-03-21T02:30:44.212Z,1.60
2018-03-21T02:31:44.236Z,1.70
2018-03-21T02:32:44.272Z,1.68
2018-03-21T02:33:44.332Z,1.66
2018-03-21T02:34:44.473Z,1.62
2018-03-21T02:35:44.533Z,1.62
2018-03-21T02:36:44.498Z,1.58
2018-03-21T02:37:44.592Z,1.48
2018-03-21T02:38:44.644Z,1.48
2018-03-21T02:39:44.712Z,1.52
2018-03-21T02:40:44.770Z,1.49
2018-03-21T02:41:44.829Z,1.40
2018-03-21T02:42:44.881Z,1.40
2018-03-21T02:43:44.904Z,1.40
2018-03-21T02:44:45.015Z,1.41
2018-03-21T02:45:45.053Z,1.37
2018-03-21T02:46:45.076Z,1.40
2018-03-21T02:47:45.153Z,1.40
2018-03-21T02:48:45.192Z,1.35
2018-03-21T02:49:45.307Z,1.30
2018-03-21T02:50:45.377Z,1.20
2018-03-21T02:51:45.385Z,1.30
2018-03-21T02:52:45.417Z,1.24
2018-03-21T02:53:45.463Z,1.28
2018-03-21T02:54:45.534Z,1.17
2018-03-21T02:55:45.598Z,1.22
2018-03-21T02:56:45.673Z,1.22
2018-03-21T02:57:45.714Z,1.20
2018-03-21T02:58:45.784Z,1.22
2018-03-21T02:59:45.833Z,1.12
2018-03-21T03:00:45.905Z,1.28
2018-03-21T03:01:45.953Z,1.19
2018-03-21T03:02:46.022Z,1.23
2018-03-21T03:03:46.069Z,1.22
2018-03-21T03:04:46.133Z,1.14
2018-03-21T03:05:46.361Z,1.08
2018-03-21T03:06:46.249Z,1.04
2018-03-21T03:07:46.293Z,1.13
2018-03-21T03:08:46.449Z,1.05
2018-03-21T03:09:46.421Z,1.13
2018-03-21T03:10:46.489Z,1.20
2018-03-21T03:11:46.557Z,1.22
2018-03-21T03:12:46.585Z,1.30
2018-03-21T03:13:46.629Z,1.20
2018-03-21T03:14:46.705Z,1.24
2018-03-21T03:15:46.777Z,1.19
2018-03-21T03:16:46.841Z,1.19
2018-03-21T03:17:46.897Z,1.24
2018-03-21T03:18:46.974Z,1.14
2018-03-21T03:19:47.005Z,1.17
2018-03-21T03:20:47.078Z,1.06
2018-03-21T03:21:47.117Z,1.13
2018-03-21T03:22:47.166Z,1.02
2018-03-21T03:23:47.241Z,1.08
2018-03-21T03:24:47.322Z,1.06
2018-03-21T03:25:47.378Z,1.14
2018-03-21T03:26:47.414Z,1.14
2018-03-21T03:27:47.501Z,1.13
2018-03-21T03:28:47.534Z,1.19
2018-03-21T03:29:47.594Z,1.22
2018-03-21T03:30:47.655Z,1.23
2018-03-21T03:31:47.706Z,1.26
2018-03-21T03:32:47.754Z,1.34
2018-03-21T03:33:47.818Z,1.35
2018-03-21T03:34:47.878Z,1.34
2018-03-21T03:35:47.930Z,1.41
2018-03-21T03:36:48.010Z,1.40
2018-03-21T03:37:48.044Z,1.50
2018-03-21T03:38:48.122Z,1.55
2018-03-21T03:39:48.158Z,1.49
2018-03-21T03:40:48.216Z,1.67
2018-03-21T03:41:48.426Z,1.63
2018-03-21T03:42:48.352Z,1.62
2018-03-21T03:43:48.390Z,1.56
2018-03-21T03:44:48.454Z,1.70
2018-03-21T03:45:48.520Z,1.67
2018-03-21T03:46:48.572Z,1.56
2018-03-21T03:47:48.629Z,1.59
2018-03-21T03:48:48.678Z,1.62
2018-03-21T03:49:48.738Z,1.76
2018-03-21T03:50:48.808Z,1.73
2018-03-21T03:51:48.859Z,1.71
2018-03-21T03:52:48.919Z,1.70
2018-03-21T03:53:48.971Z,1.63
2018-03-21T03:54:49.051Z,1.73
2018-03-21T03:55:49.093Z,1.62
2018-03-21T03:56:49.260Z,1.56
2018-03-21T03:57:49.202Z,1.53
2018-03-21T03:58:49.283Z,1.53
2018-03-21T03:59:49.331Z,1.40
2018-03-21T04:00:49.379Z,1.37
2018-03-21T04:01:49.455Z,1.22
2018-03-21T04:02:49.531Z,1.26
2018-03-21T04:03:49.556Z,1.26
2018-03-21T04:04:49.611Z,1.24
2018-03-21T04:05:49.672Z,1.20
2018-03-21T04:06:49.743Z,1.20
2018-03-21T04:07:49.796Z,1.22
2018-03-21T04:08:49.867Z,1.20
2018-03-21T04:09:49.917Z,1.17
2018-03-21T04:10:49.971Z,1.23
2018-03-21T04:11:50.040Z,1.20
2018-03-21T04:12:50.112Z,1.14
2018-03-21T04:13:50.144Z,1.01
2018-03-21T04:14:50.207Z,1.01
2018-03-21T04:15:50.288Z,1.05
2018-03-21T04:16:50.360Z,1.02
2018-03-21T04:17:50.436Z,0.99
2018-03-21T04:18:50.452Z,0.98
2018-03-21T04:19:50.527Z,0.92
2018-03-21T04:20:50.568Z,0.88
2018-03-21T04:21:50.739Z,0.86
2018-03-21T04:22:50.709Z,0.81
2018-03-21T04:23:50.724Z,0.84
2018-03-21T04:24:50.788Z,0.81
2018-03-21T04:25:50.841Z,0.80
2018-03-21T04:26:50.904Z,0.83
2018-03-21T04:27:50.964Z,0.73
2018-03-21T04:28:51.020Z,0.70
2018-03-21T04:29:51.072Z,0.73
2018-03-21T04:30:51.133Z,0.65
2018-03-21T04:31:51.496Z,0.68
2018-03-21T04:32:51.252Z,0.65
2018-03-21T04:33:51.304Z,0.59
2018-03-21T04:34:51.364Z,0.62
2018-03-21T04:35:51.420Z,0.62
2018-03-21T04:36:51.489Z,0.69
2018-03-21T04:37:51.700Z,0.63
2018-03-21T04:38:51.600Z,0.62
2018-03-21T04:39:51.653Z,0.59
2018-03-21T04:40:51.712Z,0.63
2018-03-21T04:41:51.772Z,0.63
2018-03-21T04:42:51.837Z,0.62
2018-03-21T04:43:51.896Z,0.60
2018-03-21T04:44:51.945Z,0.66
2018-03-21T04:45:52.017Z,0.70
2018-03-21T04:46:52.065Z,0.73
2018-03-21T04:47:52.128Z,0.68
2018-03-21T04:48:52.193Z,0.62
2018-03-21T04:49:52.241Z,0.69
2018-03-21T04:50:52.293Z,0.59
2018-03-21T04:51:52.361Z,0.47
2018-03-21T04:52:52.409Z,0.56
2018-03-21T04:53:52.481Z,0.58
2018-03-21T04:54:52.534Z,0.52
2018-03-21T04:55:52.589Z,0.56
2018-03-21T04:56:52.683Z,0.50
2018-03-21T04:57:52.702Z,0.56
2018-03-21T04:58:52.779Z,0.55
2018-03-21T04:59:52.829Z,0.56
2018-03-21T05:00:52.877Z,0.58
2018-03-21T05:01:52.961Z,0.41
2018-03-21T05:02:52.994Z,0.44
2018-03-21T05:03:53.062Z,0.36
2018-03-21T05:04:53.118Z,0.41
2018-03-21T05:05:53.170Z,0.41
2018-03-21T05:06:53.230Z,0.41
2018-03-21T05:07:53.287Z,0.41
2018-03-21T05:08:53.385Z,0.40
2018-03-21T05:09:53.416Z,0.34
2018-03-21T05:10:53.464Z,0.31
2018-03-21T05:11:53.514Z,0.29
2018-03-21T05:12:53.573Z,0.29
2018-03-21T05:13:53.638Z,0.22
2018-03-21T05:14:53.694Z,0.21
2018-03-21T05:15:53.746Z,0.25
2018-03-21T05:16:53.807Z,0.22
2018-03-21T05:17:53.866Z,0.32
2018-03-21T05:18:53.926Z,0.29
2018-03-21T05:19:53.990Z,0.28
2018-03-21T05:20:54.038Z,0.19
2018-03-21T05:21:54.094Z,0.23
2018-03-21T05:22:54.154Z,0.34
2018-03-21T05:23:54.550Z,0.22
2018-03-21T05:24:54.270Z,0.26
2018-03-21T05:25:54.334Z,0.22
2018-03-21T05:26:54.387Z,0.21
2018-03-21T05:27:54.442Z,0.26
2018-03-21T05:28:54.498Z,0.32
2018-03-21T05:29:54.867Z,0.26
2018-03-21T05:30:54.615Z,0.25
2018-03-21T05:31:54.678Z,0.23
2018-03-21T05:32:54.741Z,0.25
2018-03-21T05:33:54.795Z,0.23
2018-03-21T05:34:54.855Z,0.23
2018-03-21T05:35:55.067Z,0.26
2018-03-21T05:36:54.967Z,0.26
2018-03-21T05:37:55.027Z,0.26
2018-03-21T05:38:55.078Z,0.23
2018-03-21T05:39:55.143Z,0.28
2018-03-21T05:40:55.314Z,0.34
2018-03-21T05:41:55.279Z,0.36
2018-03-21T05:42:55.315Z,0.39
2018-03-21T05:43:55.367Z,0.37
2018-03-21T05:44:55.447Z,0.37
2018-03-21T05:45:55.499Z,0.37
2018-03-21T05:46:55.679Z,0.46
2018-03-21T05:47:55.641Z,0.47
2018-03-21T05:48:55.667Z,0.56
2018-03-21T05:49:55.719Z,0.55
2018-03-21T05:50:55.779Z,0.49
2018-03-21T05:51:55.836Z,0.55
2018-03-21T05:52:55.895Z,0.58
2018-03-21T05:53:55.947Z,0.58
2018-03-21T05:54:56.008Z,0.65
2018-03-21T05:55:56.076Z,0.62
2018-03-21T05:56:56.131Z,0.78
2018-03-21T05:57:56.188Z,0.83
2018-03-21T05:58:56.248Z,0.77
2018-03-21T05:59:56.299Z,0.86
2018-03-21T06:00:56.355Z,0.88
2018-03-21T06:01:56.736Z,0.95
2018-03-21T06:02:56.473Z,0.94
2018-03-21T06:03:56.527Z,0.94
2018-03-21T06:04:56.668Z,0.91
2018-03-21T06:05:56.648Z,0.92
2018-03-21T06:06:57.684Z,0.84
2018-03-21T06:07:56.777Z,0.80
2018-03-21T06:08:57.012Z,0.87
2018-03-21T06:09:56.888Z,0.91
2018-03-21T06:10:56.944Z,0.87
2018-03-21T06:11:57.159Z,0.84
2018-03-21T06:12:57.059Z,0.91
2018-03-21T06:13:57.109Z,0.92
2018-03-21T06:14:57.168Z,0.88
2018-03-21T06:15:57.228Z,0.92
2018-03-21T06:16:57.285Z,0.92
2018-03-21T06:17:57.348Z,0.94
2018-03-21T06:18:57.400Z,0.92
2018-03-21T06:19:57.456Z,0.88
2018-03-21T06:20:57.520Z,0.95
2018-03-21T06:21:57.584Z,0.98
2018-03-21T06:22:57.649Z,0.96
2018-03-21T06:23:57.692Z,0.94
2018-03-21T06:24:57.756Z,1.04
2018-03-21T06:25:57.812Z,1.02
2018-03-21T06:26:57.873Z,1.13
2018-03-21T06:27:58.044Z,1.06
2018-03-21T06:28:58.121Z,1.01
2018-03-21T06:29:58.157Z,1.12
2018-03-21T06:30:58.197Z,1.06
2018-03-21T06:31:58.597Z,1.14
2018-03-21T06:32:58.381Z,1.28
2018-03-21T06:33:58.357Z,1.19
2018-03-21T06:34:58.477Z,1.23
2018-03-21T06:35:58.432Z,1.24
2018-03-21T06:36:58.581Z,1.31
2018-03-21T06:37:58.644Z,1.24
2018-03-21T06:38:58.706Z,1.23
2018-03-21T06:39:58.749Z,1.35
2018-03-21T06:40:58.830Z,1.40
2018-03-21T06:41:58.789Z,1.42
2018-03-21T06:42:59.054Z,1.58
2018-03-21T06:43:59.134Z,1.58
2018-03-21T06:44:59.114Z,1.74
2018-03-21T06:45:59.077Z,1.85
2018-03-21T06:46:59.366Z,1.95
2018-03-21T06:47:59.302Z,1.88
2018-03-21T06:48:59.178Z,1.92
2018-03-21T06:49:59.223Z,1.92
2018-03-21T06:50:59.338Z,1.80
2018-03-21T06:51:59.423Z,1.78
2018-03-21T06:52:59.486Z,1.77
2018-03-21T06:53:59.538Z,1.80
2018-03-21T06:54:59.526Z,1.85
2018-03-21T06:55:59.579Z,1.88
2018-03-21T06:56:59.737Z,1.91
2018-03-21T06:57:59.727Z,1.77
2018-03-21T06:58:59.790Z,1.80
2018-03-21T06:59:59.818Z,1.85
2018-03-21T07:00:59.992Z,1.91
2018-03-21T07:01:59.994Z,1.85
2018-03-21T07:02:59.992Z,1.91
2018-03-21T07:04:00.060Z,2.02
2018-03-21T07:05:00.138Z,2.06
2018-03-21T07:06:00.155Z,2.02
2018-03-21T07:07:00.210Z,2.04
2018-03-21T07:08:00.299Z,2.11
2018-03-21T07:09:00.387Z,2.32
2018-03-21T07:10:00.375Z,2.31
2018-03-21T07:11:00.503Z,2.20
2018-03-21T07:12:00.483Z,2.24
2018-03-21T07:13:00.591Z,2.17
2018-03-21T07:14:00.631Z,2.10
2018-03-21T07:15:00.715Z,1.99
2018-03-21T07:16:00.739Z,2.06
2018-03-21T07:17:00.787Z,1.92
2018-03-21T07:18:00.856Z,1.99
2018-03-21T07:19:00.902Z,2.02
2018-03-21T07:20:00.966Z,1.99
2018-03-21T07:21:01.014Z,2.06
2018-03-21T07:22:01.119Z,1.97
2018-03-21T07:23:01.135Z,2.06
2018-03-21T07:24:01.207Z,2.13
2018-03-21T07:25:01.367Z,2.04
2018-03-21T07:26:01.323Z,2.08
2018-03-21T07:27:01.387Z,2.18
2018-03-21T07:28:01.448Z,2.25
2018-03-21T07:29:01.506Z,2.35
2018-03-21T07:30:01.543Z,2.32
2018-03-21T07:31:01.616Z,2.29
2018-03-21T07:32:01.695Z,2.36
2018-03-21T07:33:01.716Z,2.43
2018-03-21T07:34:01.790Z,2.28
2018-03-21T07:35:01.871Z,2.32
2018-03-21T07:36:01.941Z,2.43
2018-03-21T07:37:01.997Z,2.44
2018-03-21T07:38:02.056Z,2.53
2018-03-21T07:39:02.066Z,2.46
2018-03-21T07:40:02.128Z,2.44
2018-03-21T07:41:02.204Z,2.49
2018-03-21T07:42:02.272Z,2.43
2018-03-21T07:43:02.297Z,2.44
2018-03-21T07:44:02.375Z,2.46
2018-03-21T07:45:02.440Z,2.39
2018-03-21T07:46:02.489Z,2.31
2018-03-21T07:47:02.540Z,2.32
2018-03-21T07:48:02.576Z,2.36
2018-03-21T07:49:02.631Z,2.36
2018-03-21T07:50:02.693Z,2.38
2018-03-21T07:51:02.792Z,2.39
2018-03-21T07:52:02.846Z,2.44
2018-03-21T07:53:02.892Z,2.51
2018-03-21T07:54:02.920Z,2.49
2018-03-21T07:55:02.996Z,2.65
2018-03-21T07:56:03.047Z,2.69
2018-03-21T07:57:03.140Z,2.64
2018-03-21T07:58:03.152Z,2.79
2018-03-21T07:59:03.208Z,2.74
2018-03-21T08:00:03.421Z,2.72
2018-03-21T08:01:03.377Z,2.74
2018-03-21T08:02:03.421Z,2.65
2018-03-21T08:03:03.441Z,2.62
2018-03-21T08:04:03.505Z,2.50
2018-03-21T08:05:03.579Z,2.53
2018-03-21T08:06:03.625Z,2.61
2018-03-21T08:07:03.673Z,2.64
2018-03-21T08:08:03.737Z,2.69
2018-03-21T08:09:03.797Z,2.74
2018-03-21T08:10:03.859Z,2.67
2018-03-21T08:11:04.025Z,2.65
2018-03-21T08:12:03.973Z,2.47
2018-03-21T08:13:04.038Z,2.51
2018-03-21T08:14:04.085Z,2.47
2018-03-21T08:15:04.166Z,2.47
2018-03-21T08:16:04.201Z,2.49
2018-03-21T08:17:04.270Z,2.47
2018-03-21T08:18:04.354Z,2.49
2018-03-21T08:19:04.378Z,2.31
2018-03-21T08:20:04.438Z,2.38
2018-03-21T08:21:04.510Z,2.35
2018-03-21T08:22:04.554Z,2.44
2018-03-21T08:23:04.613Z,2.46
2018-03-21T08:24:04.671Z,2.38
2018-03-21T08:25:04.749Z,2.36
2018-03-21T08:26:04.790Z,2.39
2018-03-21T08:27:04.842Z,2.49
2018-03-21T08:28:04.906Z,2.51
2018-03-21T08:29:04.993Z,2.49
2018-03-21T08:30:05.019Z,2.51
2018-03-21T08:31:05.107Z,2.49
2018-03-21T08:32:05.177Z,2.51
2018-03-21T08:33:05.195Z,2.46
2018-03-21T08:34:05.265Z,2.50
2018-03-21T08:35:05.310Z,2.42
2018-03-21T08:36:05.389Z,2.46
2018-03-21T08:37:05.434Z,2.53
2018-03-21T08:38:05.533Z,2.46
2018-03-21T08:39:05.546Z,2.43
2018-03-21T08:40:05.599Z,2.39
2018-03-21T08:41:05.665Z,2.32
2018-03-21T08:42:05.728Z,2.31
2018-03-21T08:43:05.774Z,2.36
2018-03-21T08:44:05.839Z,2.36
2018-03-21T08:45:05.887Z,2.33
2018-03-21T08:46:05.955Z,2.31
2018-03-21T08:47:06.135Z,2.26
2018-03-21T08:48:06.081Z,2.49
2018-03-21T08:49:06.123Z,2.49
2018-03-21T08:50:06.231Z,2.50
2018-03-21T08:51:06.407Z,2.50
2018-03-21T08:52:06.299Z,2.69
2018-03-21T08:53:06.355Z,2.56
2018-03-21T08:54:06.419Z,2.71
2018-03-21T08:55:06.486Z,2.75
2018-03-21T08:56:06.535Z,2.82
2018-03-21T08:57:06.595Z,2.80
2018-03-21T08:58:06.655Z,2.77
2018-03-21T08:59:06.708Z,2.85
2018-03-21T09:00:06.769Z,2.80
2018-03-21T09:01:06.828Z,2.92
2018-03-21T09:02:06.900Z,2.92
2018-03-21T09:03:06.945Z,3.04
2018-03-21T09:04:07.000Z,2.97
2018-03-21T09:05:07.068Z,2.93
2018-03-21T09:06:07.133Z,2.93
2018-03-21T09:07:07.181Z,3.03
2018-03-21T09:08:07.228Z,3.04
2018-03-21T09:09:07.288Z,3.03
2018-03-21T09:10:07.352Z,3.01
2018-03-21T09:11:07.424Z,3.03
2018-03-21T09:12:07.480Z,3.07
2018-03-21T09:13:07.524Z,3.10
2018-03-21T09:14:07.592Z,3.25
2018-03-21T09:15:07.636Z,3.22
2018-03-21T09:16:07.705Z,3.25
2018-03-21T09:17:07.764Z,3.25
2018-03-21T09:18:07.815Z,3.32
2018-03-21T09:19:07.876Z,3.26
2018-03-21T09:20:07.932Z,3.44
2018-03-21T09:21:08.005Z,3.41
2018-03-21T09:22:08.125Z,3.42
2018-03-21T09:23:08.108Z,3.40
2018-03-21T09:24:08.170Z,3.28
2018-03-21T09:25:08.224Z,3.37
2018-03-21T09:26:08.451Z,3.32
2018-03-21T09:27:08.341Z,3.29
2018-03-21T09:28:08.409Z,3.37
2018-03-21T09:29:08.462Z,3.44
2018-03-21T09:30:08.520Z,3.42
2018-03-21T09:31:08.588Z,3.50
2018-03-21T09:32:08.660Z,3.58
2018-03-21T09:33:08.697Z,3.63
2018-03-21T09:34:08.758Z,3.63
2018-03-21T09:35:08.829Z,3.70
2018-03-21T09:36:08.881Z,3.69
2018-03-21T09:37:08.953Z,3.74
2018-03-21T09:38:08.996Z,3.73
2018-03-21T09:39:09.108Z,3.73
2018-03-21T09:40:09.118Z,3.68
2018-03-21T09:41:09.609Z,3.73
2018-03-21T09:42:09.239Z,3.63
2018-03-21T09:43:09.303Z,3.65
2018-03-21T09:44:09.353Z,3.69
2018-03-21T09:45:09.429Z,3.77
2018-03-21T09:46:09.470Z,3.73
2018-03-21T09:47:09.693Z,3.77
2018-03-21T09:48:09.596Z,3.73
2018-03-21T09:49:09.653Z,3.76
2018-03-21T09:50:09.706Z,3.81
2018-03-21T09:51:09.762Z,3.91
2018-03-21T09:52:09.829Z,3.76
2018-03-21T09:53:09.895Z,3.68
2018-03-21T09:54:09.958Z,3.70
2018-03-21T09:55:10.005Z,3.63
2018-03-21T09:56:10.066Z,3.76
2018-03-21T09:57:10.445Z,3.70
2018-03-21T09:58:10.178Z,3.78
2018-03-21T09:59:10.234Z,3.84
2018-03-21T10:00:10.294Z,3.80
2018-03-21T10:01:10.371Z,3.81
2018-03-21T10:02:10.414Z,3.69
2018-03-21T10:03:10.698Z,3.66
2018-03-21T10:04:10.548Z,3.68
2018-03-21T10:05:10.590Z,3.73
2018-03-21T10:06:10.658Z,3.76
2018-03-21T10:07:10.718Z,3.86
2018-03-21T10:08:10.786Z,3.80
2018-03-21T10:09:10.830Z,3.88
2018-03-21T10:10:10.900Z,3.95
2018-03-21T10:11:10.962Z,4.01
2018-03-21T10:12:11.018Z,4.04
2018-03-21T10:13:11.081Z,3.95
2018-03-21T10:14:11.135Z,4.01
2018-03-21T10:15:11.182Z,4.02
2018-03-21T10:16:11.242Z,3.99
2018-03-21T10:17:11.307Z,3.96
2018-03-21T10:18:11.367Z,3.92
2018-03-21T10:19:11.431Z,3.95
2018-03-21T10:20:11.479Z,3.98
2018-03-21T10:21:11.546Z,3.87
2018-03-21T10:22:11.598Z,3.96
2018-03-21T10:23:11.666Z,3.95
2018-03-21T10:24:11.723Z,3.95
2018-03-21T10:25:11.774Z,3.96
2018-03-21T10:26:11.835Z,3.96
2018-03-21T10:27:11.907Z,3.95
2018-03-21T10:28:12.007Z,3.96
2018-03-21T10:29:12.023Z,3.99
2018-03-21T10:30:12.083Z,3.99
2018-03-21T10:31:12.131Z,3.96
2018-03-21T10:32:12.188Z,3.99
2018-03-21T10:33:12.247Z,3.98
2018-03-21T10:34:12.475Z,4.06
2018-03-21T10:35:12.367Z,4.10
2018-03-21T10:36:12.426Z,4.05
2018-03-21T10:37:12.499Z,4.04
2018-03-21T10:38:12.560Z,4.04
2018-03-21T10:39:12.612Z,4.05
2018-03-21T10:40:12.667Z,4.13
2018-03-21T10:41:12.723Z,4.12
2018-03-21T10:42:12.783Z,4.24
2018-03-21T10:43:12.844Z,4.30
2018-03-21T10:44:12.916Z,4.35
2018-03-21T10:45:12.964Z,4.23
2018-03-21T10:46:13.047Z,4.37
2018-03-21T10:47:13.075Z,4.44
2018-03-21T10:48:13.136Z,4.53
2018-03-21T10:49:13.351Z,4.49
2018-03-21T10:50:13.252Z,4.44
2018-03-21T10:51:13.316Z,4.58
2018-03-21T10:52:13.372Z,4.56
2018-03-21T10:53:13.443Z,4.58
2018-03-21T10:54:13.512Z,4.62
2018-03-21T10:55:13.561Z,4.60
2018-03-21T10:56:13.624Z,4.56
2018-03-21T10:57:13.680Z,4.58
2018-03-21T10:58:13.737Z,4.56
2018-03-21T10:59:13.804Z,4.58
2018-03-21T11:00:13.861Z,4.60
2018-03-21T11:01:13.916Z,4.62
2018-03-21T11:02:13.968Z,4.56
2018-03-21T11:03:14.029Z,4.48
2018-03-21T11:04:14.196Z,4.42
2018-03-21T11:05:14.148Z,4.42
2018-03-21T11:06:14.209Z,4.38
2018-03-21T11:07:14.268Z,4.34
2018-03-21T11:08:14.324Z,4.48
2018-03-21T11:09:14.396Z,4.45
2018-03-21T11:10:14.461Z,4.55
2018-03-21T11:11:14.509Z,4.50
2018-03-21T11:12:14.565Z,4.53
2018-03-21T11:13:14.625Z,4.62
2018-03-21T11:14:14.688Z,4.60
2018-03-21T11:15:14.750Z,4.67
2018-03-21T11:16:14.811Z,4.71
2018-03-21T11:17:14.861Z,4.60
2018-03-21T11:18:14.925Z,4.70
2018-03-21T11:19:15.003Z,4.73
2018-03-21T11:20:15.053Z,4.71
2018-03-21T11:21:15.111Z,4.71
2018-03-21T11:22:15.168Z,4.78
2018-03-21T11:23:15.226Z,4.86
2018-03-21T11:24:15.394Z,4.70
2018-03-21T11:25:15.347Z,4.67
2018-03-21T11:26:15.398Z,4.82
2018-03-21T11:27:15.457Z,4.80
2018-03-21T11:28:15.521Z,4.75
2018-03-21T11:29:15.625Z,4.71
2018-03-21T11:30:15.646Z,4.62
2018-03-21T11:31:15.701Z,4.71
2018-03-21T11:32:15.758Z,4.67
2018-03-21T11:33:15.819Z,4.78
2018-03-21T11:34:15.881Z,4.82
2018-03-21T11:35:15.942Z,4.84
2018-03-21T11:36:16.037Z,4.82
2018-03-21T11:37:16.058Z,4.89
2018-03-21T11:38:16.114Z,4.84
2018-03-21T11:39:16.182Z,4.89
2018-03-21T11:40:16.348Z,4.94
2018-03-21T11:41:16.298Z,5.00
2018-03-21T11:42:16.354Z,5.02
2018-03-21T11:43:16.414Z,4.96
2018-03-21T11:44:16.482Z,4.97
2018-03-21T11:45:16.542Z,5.08
2018-03-21T11:46:16.611Z,5.11
2018-03-21T11:47:16.682Z,5.18
2018-03-21T11:48:16.755Z,5.36
2018-03-21T11:49:16.774Z,5.38
2018-03-21T11:50:16.850Z,5.41
2018-03-21T11:51:16.938Z,5.47
2018-03-21T11:52:16.959Z,5.50
2018-03-21T11:53:17.041Z,5.53
2018-03-21T11:54:17.080Z,5.53
2018-03-21T11:55:17.282Z,5.38
2018-03-21T11:56:17.210Z,5.35
2018-03-21T11:57:17.263Z,5.38
2018-03-21T11:58:17.323Z,5.36
2018-03-21T11:59:17.375Z,5.43
2018-03-21T12:00:17.462Z,5.35
2018-03-21T12:01:17.511Z,5.35
2018-03-21T12:02:17.555Z,5.35
2018-03-21T12:03:17.615Z,5.29
2018-03-21T12:04:17.679Z,5.38
2018-03-21T12:05:17.805Z,5.26
2018-03-21T12:06:17.799Z,5.33
2018-03-21T12:07:17.855Z,5.35
2018-03-21T12:08:17.923Z,5.28
2018-03-21T12:09:17.979Z,5.29
2018-03-21T12:10:18.063Z,5.30
2018-03-21T12:11:18.112Z,5.29
2018-03-21T12:12:18.167Z,5.30
2018-03-21T12:13:18.258Z,5.30
2018-03-21T12:14:18.295Z,5.35
2018-03-21T12:15:18.371Z,5.29
2018-03-21T12:16:18.451Z,5.35
2018-03-21T12:17:18.471Z,5.41
2018-03-21T12:18:18.515Z,5.36
2018-03-21T12:19:18.587Z,5.38
2018-03-21T12:20:18.647Z,5.33
2018-03-21T12:21:18.712Z,5.35
2018-03-21T12:22:18.768Z,5.20
2018-03-21T12:23:18.819Z,5.32
2018-03-21T12:24:18.899Z,5.28
2018-03-21T12:25:18.944Z,5.26
2018-03-21T12:26:19.004Z,5.35
2018-03-21T12:27:19.069Z,5.29
2018-03-21T12:28:19.127Z,5.29
2018-03-21T12:29:19.198Z,5.39
2018-03-21T12:30:19.280Z,5.47
2018-03-21T12:31:19.300Z,5.41
2018-03-21T12:32:19.380Z,5.54
2018-03-21T12:33:19.432Z,5.56
2018-03-21T12:34:19.507Z,5.71
2018-03-21T12:35:19.572Z,5.83
2018-03-21T12:36:19.612Z,6.02
2018-03-21T12:37:19.664Z,6.16
2018-03-21T12:38:19.720Z,6.35
2018-03-21T12:39:19.772Z,6.93
2018-03-21T12:40:19.865Z,7.11
2018-03-21T12:41:19.908Z,8.24
2018-03-21T12:42:19.966Z,8.00
2018-03-21T12:43:20.064Z,7.60
2018-03-21T12:44:20.113Z,7.25
2018-03-21T12:45:20.144Z,7.06
2018-03-21T12:46:20.324Z,6.97
2018-03-21T12:47:20.268Z,6.85
2018-03-21T12:48:20.340Z,6.75
2018-03-21T12:49:20.397Z,6.67
2018-03-21T12:50:20.456Z,6.56
2018-03-21T12:51:20.516Z,6.46
2018-03-21T12:52:20.591Z,6.27
2018-03-21T12:53:20.632Z,6.17
2018-03-21T12:54:20.744Z,6.07
2018-03-21T12:55:20.781Z,6.05
2018-03-21T12:56:20.870Z,5.91
2018-03-21T12:57:20.881Z,5.90
2018-03-21T12:58:20.944Z,5.90
2018-03-21T12:59:21.000Z,5.86
2018-03-21T13:00:21.082Z,5.80
2018-03-21T13:01:21.141Z,5.79
2018-03-21T13:02:21.180Z,5.79
2018-03-21T13:03:21.307Z,5.86
2018-03-21T13:04:21.301Z,5.98
2018-03-21T13:05:21.371Z,6.09
2018-03-21T13:06:21.437Z,6.16
2018-03-21T13:07:21.498Z,6.26
2018-03-21T13:08:21.570Z,6.38
2018-03-21T13:09:21.606Z,6.66
2018-03-21T13:10:21.670Z,6.89
2018-03-21T13:11:21.730Z,7.06
2018-03-21T13:12:21.793Z,7.17
2018-03-21T13:13:21.858Z,7.56
2018-03-21T13:14:21.917Z,8.18
2018-03-21T13:15:22.025Z,9.76
2018-03-21T13:16:22.050Z,10.46
2018-03-21T13:17:22.105Z,11.51
2018-03-21T13:18:22.153Z,11.12
2018-03-21T13:19:22.218Z,10.94